Wales, Michigan
Current Conditions -  °F | °C
As of 10:17 AM on Thursday 18 Dec 2014 (Local Time) from KPHN Reporting Station
Overcast Overcast  
Wind Chill: 30°   Ceiling: 2500
Heat Index: 30°   Visibility: 10mi
Dew Point: 27°   Wind: 3mph
Humidity: 86%   Direction: 320°NW
Pressure: 30.19"   Gusts: NA
Location:  42.9446°N, 82.6827°W
Report Text: KPHN 181517Z AUTO 32003KT 10SM SCT015 OVC025 M01/M03 A3019 RMK AO2
Loading
Personal Weather Stations






























Interactive Weather Map New forecast layout! Learn more

10-Day Weather Forecast

Advertisements
Track Severe Weather on mobile